createdAt,value
2018-04-17T00:02:03.109Z,85.4
2018-04-17T00:07:03.663Z,85.2
2018-04-17T00:12:03.317Z,85.0
2018-04-17T00:17:03.197Z,85.0
2018-04-17T00:22:03.473Z,84.9
2018-04-17T00:27:03.341Z,84.9
2018-04-17T00:32:03.920Z,85.0
2018-04-17T00:37:03.108Z,84.7
2018-04-17T00:42:03.808Z,84.4
2018-04-17T00:47:03.347Z,84.6
2018-04-17T00:52:03.865Z,84.5
2018-04-17T00:57:03.309Z,84.4
2018-04-17T01:02:03.831Z,83.6
2018-04-17T01:07:03.265Z,84.3
2018-04-17T01:12:03.900Z,84.2
2018-04-17T01:17:03.346Z,84.2
2018-04-17T01:22:03.623Z,84.3
2018-04-17T01:27:03.296Z,84.2
2018-04-17T01:32:03.931Z,84.2
2018-04-17T01:37:03.167Z,84.1
2018-04-17T01:42:03.063Z,83.9
2018-04-17T01:47:03.949Z,83.8
2018-04-17T01:52:03.629Z,83.8
2018-04-17T01:57:03.453Z,83.8
2018-04-17T02:02:03.729Z,83.8
2018-04-17T02:07:03.494Z,83.6
2018-04-17T02:12:03.356Z,83.6
2018-04-17T02:17:03.875Z,83.5
2018-04-17T02:22:03.417Z,83.7
2018-04-17T02:27:03.847Z,83.4
2018-04-17T02:32:03.662Z,83.3
2018-04-17T02:37:03.538Z,83.3
2018-04-17T02:42:03.493Z,83.4
2018-04-17T02:47:03.623Z,83.4
2018-04-17T02:52:03.663Z,83.2
2018-04-17T02:57:03.748Z,83.2
2018-04-17T03:02:03.920Z,83.1
2018-04-17T03:07:03.251Z,83.0
2018-04-17T03:12:03.489Z,82.8
2018-04-17T03:17:03.616Z,83.0
2018-04-17T03:22:03.727Z,83.0
2018-04-17T03:27:03.809Z,83.0
2018-04-17T03:32:03.894Z,83.0
2018-04-17T03:37:03.977Z,83.0
2018-04-17T03:42:02.997Z,83.0
2018-04-17T03:47:03.287Z,83.0
2018-04-17T03:52:03.480Z,82.9
2018-04-17T03:57:03.556Z,82.9
2018-04-17T04:02:16.290Z,82.8
2018-04-17T04:07:03.329Z,82.8
2018-04-17T04:12:03.557Z,82.7
2018-04-17T04:17:03.845Z,82.7
2018-04-17T04:22:03.539Z,82.7
2018-04-17T04:27:03.867Z,82.6
2018-04-17T04:32:03.287Z,82.6
2018-04-17T04:37:03.255Z,82.6
2018-04-17T04:42:03.361Z,82.5
2018-04-17T04:47:21.878Z,82.6
2018-04-17T04:52:03.755Z,82.5
2018-04-17T04:57:03.790Z,82.5
2018-04-17T05:02:22.374Z,82.4
2018-04-17T05:07:03.179Z,81.6
2018-04-17T05:12:03.447Z,81.7
2018-04-17T05:17:22.660Z,81.0
2018-04-17T05:22:03.636Z,81.0
2018-04-17T05:27:03.743Z,81.1
2018-04-17T05:32:25.085Z,80.9
2018-04-17T05:37:03.069Z,80.9
2018-04-17T05:42:03.217Z,80.2
2018-04-17T05:47:23.507Z,80.1
2018-04-17T05:52:03.639Z,79.9
2018-04-17T05:57:03.756Z,79.8
2018-04-17T06:02:22.922Z,80.1
2018-04-17T06:07:03.470Z,79.8
2018-04-17T06:12:03.722Z,79.3
2018-04-17T06:17:24.120Z,79.1
2018-04-17T06:22:03.151Z,79.2
2018-04-17T06:27:03.329Z,79.3
2018-04-17T06:32:22.789Z,79.2
2018-04-17T06:37:03.817Z,79.4
2018-04-17T06:42:04.003Z,79.3
2018-04-17T06:47:23.777Z,79.3
2018-04-17T06:52:03.514Z,79.6
2018-04-17T06:57:03.700Z,79.6
2018-04-17T07:02:25.075Z,79.6
2018-04-17T07:07:03.304Z,79.7
2018-04-17T07:12:03.693Z,79.8
2018-04-17T07:17:23.280Z,79.8
2018-04-17T07:22:03.007Z,79.6
2018-04-17T07:27:03.334Z,79.6
2018-04-17T07:32:24.034Z,80.0
2018-04-17T07:37:03.890Z,79.9
2018-04-17T07:42:03.008Z,80.2
2018-04-17T07:47:22.149Z,80.3
2018-04-17T07:52:03.486Z,80.5
2018-04-17T07:57:03.661Z,80.4
2018-04-17T08:02:26.409Z,80.9
2018-04-17T08:07:03.233Z,80.8
2018-04-17T08:12:03.510Z,81.2
2018-04-17T08:17:24.501Z,81.5
2018-04-17T08:22:03.064Z,81.6
2018-04-17T08:27:03.305Z,81.4
2018-04-17T08:32:23.144Z,81.9
2018-04-17T08:37:03.796Z,81.9
2018-04-17T08:42:03.872Z,81.9
2018-04-17T08:47:14.283Z,82.2
2018-04-17T08:52:03.382Z,82.3
2018-04-17T08:57:03.615Z,82.8
2018-04-17T09:02:23.378Z,82.9
2018-04-17T09:07:03.167Z,83.1
2018-04-17T09:12:03.416Z,83.2
2018-04-17T09:17:20.577Z,83.5
2018-04-17T09:22:03.944Z,83.5
2018-04-17T09:27:03.175Z,83.7
2018-04-17T09:32:23.384Z,83.8
2018-04-17T09:37:03.702Z,83.8
2018-04-17T09:42:03.787Z,84.2
2018-04-17T09:47:22.745Z,84.3
2018-04-17T09:52:03.297Z,84.2
2018-04-17T09:57:03.545Z,84.2
2018-04-17T10:02:22.031Z,84.8
2018-04-17T10:07:03.488Z,84.6
2018-04-17T10:12:03.819Z,84.6
2018-04-17T10:17:24.425Z,84.2
2018-04-17T10:22:03.578Z,84.9
2018-04-17T10:27:03.844Z,84.9
2018-04-17T10:32:20.779Z,85.3
2018-04-17T10:37:02.975Z,84.9
2018-04-17T10:42:03.157Z,84.9
2018-04-17T10:47:21.281Z,85.1
2018-04-17T10:52:03.317Z,85.1
2018-04-17T10:57:03.575Z,85.0
2018-04-17T11:02:26.907Z,85.4
2018-04-17T11:07:03.180Z,85.3
2018-04-17T11:12:03.947Z,85.2
2018-04-17T11:17:18.992Z,84.6
2018-04-17T11:22:03.305Z,85.0
2018-04-17T11:27:03.413Z,84.7
2018-04-17T11:32:27.508Z,86.0
2018-04-17T11:37:03.382Z,86.0
2018-04-17T11:42:03.604Z,85.7
2018-04-17T11:47:20.175Z,85.7
2018-04-17T11:52:02.895Z,87.1
2018-04-17T11:57:03.104Z,87.1
2018-04-17T12:02:21.327Z,86.9
2018-04-17T12:07:03.339Z,86.9
2018-04-17T12:12:03.654Z,87.1
2018-04-17T12:17:22.265Z,86.9
2018-04-17T12:22:03.747Z,86.6
2018-04-17T12:27:03.928Z,86.6
2018-04-17T12:32:19.836Z,86.6
2018-04-17T12:37:03.262Z,86.6
2018-04-17T12:42:03.439Z,85.1
2018-04-17T12:47:23.314Z,86.4
2018-04-17T12:52:02.905Z,86.7
2018-04-17T12:57:03.162Z,86.7
2018-04-17T13:02:23.835Z,85.0
2018-04-17T13:07:03.761Z,84.9
2018-04-17T13:12:03.037Z,84.6
2018-04-17T13:17:24.138Z,84.8
2018-04-17T13:22:03.804Z,84.8
2018-04-17T13:27:03.867Z,84.8
2018-04-17T13:32:21.596Z,85.6
2018-04-17T13:37:03.489Z,85.1
2018-04-17T13:42:03.720Z,85.1
2018-04-17T13:47:26.621Z,84.7
2018-04-17T13:52:03.050Z,85.1
2018-04-17T13:57:03.237Z,85.5
2018-04-17T14:02:21.778Z,85.3
2018-04-17T14:07:03.757Z,85.1
2018-04-17T14:12:03.050Z,86.1
2018-04-17T14:17:20.822Z,85.5
2018-04-17T14:22:03.521Z,85.0
2018-04-17T14:27:03.836Z,85.0
2018-04-17T14:32:20.382Z,79.3
2018-04-17T14:37:03.595Z,79.3
2018-04-17T14:42:03.783Z,75.4
2018-04-17T14:47:22.683Z,71.6
2018-04-17T14:52:03.388Z,70.1
2018-04-17T14:57:03.624Z,68.2
2018-04-17T15:02:24.218Z,61.6
2018-04-17T15:07:03.099Z,61.4
2018-04-17T15:12:03.378Z,59.4
2018-04-17T15:17:24.956Z,59.5
2018-04-17T15:22:03.786Z,59.0
2018-04-17T15:27:03.163Z,58.9
2018-04-17T15:32:22.381Z,60.5
2018-04-17T15:37:03.450Z,60.5
2018-04-17T15:42:03.570Z,60.1
2018-04-17T15:47:22.498Z,62.5
2018-04-17T15:52:02.988Z,59.7
2018-04-17T15:57:03.185Z,60.3
2018-04-17T16:02:20.519Z,62.6
2018-04-17T16:07:03.697Z,61.8
2018-04-17T16:12:03.068Z,64.9
2018-04-17T16:17:19.701Z,60.7
2018-04-17T16:22:03.513Z,62.4
2018-04-17T16:27:03.664Z,62.3
2018-04-17T16:32:18.339Z,58.9
2018-04-17T16:37:03.046Z,59.4
2018-04-17T16:42:03.283Z,59.4
2018-04-17T16:47:18.409Z,60.1
2018-04-17T16:52:03.619Z,61.0
2018-04-17T16:57:03.774Z,63.4
2018-04-17T17:02:20.115Z,71.2
2018-04-17T17:07:03.537Z,71.2
2018-04-17T17:12:03.847Z,74.8
2018-04-17T17:17:18.258Z,74.8
2018-04-17T17:22:03.157Z,71.1
2018-04-17T17:27:03.450Z,69.5
2018-04-17T17:32:20.079Z,74.4
2018-04-17T17:37:03.898Z,74.4
2018-04-17T17:42:02.934Z,74.9
2018-04-17T17:47:23.565Z,75.0
2018-04-17T17:52:03.308Z,82.9
2018-04-17T17:57:03.403Z,83.0
2018-04-17T18:02:23.312Z,83.6
2018-04-17T18:07:04.036Z,83.5
2018-04-17T18:12:03.251Z,86.6
2018-04-17T18:17:22.264Z,86.6
2018-04-17T18:22:03.619Z,86.7
2018-04-17T18:27:03.863Z,87.1
2018-04-17T18:32:19.287Z,87.0
2018-04-17T18:37:03.277Z,87.1
2018-04-17T18:42:03.570Z,86.8
2018-04-17T18:47:19.387Z,86.6
2018-04-17T18:52:03.802Z,86.3
2018-04-17T18:57:03.918Z,86.2
2018-04-17T19:02:15.113Z,86.1
2018-04-17T19:07:03.465Z,85.9
2018-04-17T19:12:03.821Z,85.6
2018-04-17T19:17:04.226Z,85.4
2018-04-17T19:22:03.231Z,85.2
2018-04-17T19:27:03.473Z,85.3
2018-04-17T19:32:03.570Z,85.1
2018-04-17T19:37:03.675Z,85.0
2018-04-17T19:42:03.663Z,85.0
2018-04-17T19:47:05.562Z,85.0
2018-04-17T19:52:03.108Z,85.0
2018-04-17T19:57:03.369Z,85.0
2018-04-17T20:02:04.614Z,84.8
2018-04-17T20:07:03.663Z,84.8
2018-04-17T20:12:03.845Z,84.7
2018-04-17T20:17:04.013Z,84.7
2018-04-17T20:22:03.223Z,84.5
2018-04-17T20:27:03.478Z,84.5
2018-04-17T20:32:03.427Z,84.5
2018-04-17T20:37:03.629Z,84.4
2018-04-17T20:42:03.665Z,83.9
2018-04-17T20:47:03.799Z,83.7
2018-04-17T20:52:03.869Z,83.7
2018-04-17T20:57:02.996Z,83.8
2018-04-17T21:02:03.228Z,83.0
2018-04-17T21:07:03.317Z,83.4
2018-04-17T21:12:03.617Z,83.6
2018-04-17T21:17:03.728Z,83.5
2018-04-17T21:22:03.858Z,83.4
2018-04-17T21:27:03.898Z,83.5
2018-04-17T21:32:03.059Z,83.4
2018-04-17T21:37:03.318Z,83.3
2018-04-17T21:42:03.404Z,83.2
2018-04-17T21:47:03.435Z,83.0
2018-04-17T21:52:03.440Z,82.9
2018-04-17T21:57:03.621Z,82.9
2018-04-17T22:02:03.838Z,82.8
2018-04-17T22:07:03.257Z,83.0
2018-04-17T22:12:03.078Z,82.9
2018-04-17T22:22:04.133Z,82.2
2018-04-17T22:27:03.428Z,82.4
2018-04-17T22:32:03.916Z,82.3
2018-04-17T22:37:03.589Z,82.4
2018-04-17T22:42:03.122Z,82.4
2018-04-17T22:47:03.820Z,82.4
2018-04-17T22:52:03.766Z,82.3
2018-04-17T22:57:03.320Z,82.1
2018-04-17T23:02:03.168Z,82.1
2018-04-17T23:07:03.612Z,82.2
2018-04-17T23:12:03.278Z,82.1
2018-04-17T23:17:03.882Z,82.1
2018-04-17T23:22:03.751Z,82.0
2018-04-17T23:27:03.400Z,82.0
2018-04-17T23:32:03.953Z,82.2
2018-04-17T23:37:03.082Z,81.9
2018-04-17T23:42:03.627Z,81.9
2018-04-17T23:47:03.424Z,81.8
2018-04-17T23:52:03.666Z,81.9
2018-04-17T23:57:03.183Z,81.8
